• Join FlightAware (Why Join?)
  • Login
  • US Flag 
02:07AM EDT


 

Airport Tracker/Info


-or-


 

Live Flight TrackerFlight Track Log ✈ THY1073 ✈ 07-Sep-2013 ✈ LTBA / IST - LATI / TIA

Flight Track Log - Related Links

Times and Time Zones

All times are in EDT time to prevent confusion due to time zone crossing. See the THY1073 flight status page for this flight to view local times or setup timezone preferences in your user account.

Time Position Orientation Groundspeed Altitude Reporting Facility
EDT Latitude Longitude Course Direction KTS MPH feet Rate Location/Type
12:49AM 41.0237 28.2743 277° West  Level Estimated
12:50AM 41.0350 28.1375 276° West  Level Estimated
12:51AM 41.0462 28.0006 276° West  Level Estimated
12:52AM 41.0571 27.8637 276° West  Level Estimated
12:53AM 41.0679 27.7267 276° West  Level Estimated
12:54AM 41.0786 27.5897 276° West  Level Estimated
12:55AM 41.0891 27.4527 276° West  Level Estimated
12:56AM 41.0994 27.3156 276° West  Level Estimated
12:57AM 41.1096 27.1784 276° West  Level Estimated
12:58AM 41.1196 27.0413 276° West  Level Estimated
12:59AM 41.1294 26.9040 275° West  Level Estimated
01:00AM 41.1391 26.7668 275° West  Level Estimated
01:01AM 41.1486 26.6295 275° West  Level Estimated
01:02AM 41.1580 26.4921 275° West  Level Estimated
01:03AM 41.1671 26.3548 275° West  Level Estimated
01:04AM 41.1762 26.2173 275° West  Level Estimated
01:05AM 41.1850 26.0799 275° West  Level Estimated
01:06AM 41.1937 25.9424 275° West  Level Estimated
01:07AM 41.2023 25.8049 275° West  Level Estimated
01:08AM 41.2106 25.6673 275° West  Level Estimated
01:09AM 41.2188 25.5297 275° West  Level Estimated
01:10AM 41.2269 25.3921 274° West  Level Estimated
01:11AM 41.2347 25.2544 274° West  Level Estimated
01:12AM 41.2425 25.1167 274° West  Level Estimated
01:13AM 41.2500 24.9790 274° West  Level Estimated
01:14AM 41.2574 24.8412 274° West  Level Estimated
01:15AM 41.2646 24.7034 274° West  Level Estimated
01:16AM 41.2717 24.5656 274° West  Level Estimated
01:17AM 41.2786 24.4278 274° West  Level Estimated
01:18AM 41.2853 24.2899 274° West  Level Estimated
01:19AM 41.2919 24.1520 274° West  Level Estimated
01:20AM 41.2983 24.0140 274° West  Level Estimated
01:21AM 41.3045 23.8761 273° West  Level Estimated
01:22AM 41.3106 23.7381 273° West  Level Estimated
01:23AM 41.3165 23.6001 273° West  Level Estimated
01:24AM 41.3222 23.4620 273° West  Level Estimated
01:25AM 41.3278 23.3240 273° West  Level Estimated
01:26AM 41.3332 23.1859 273° West  Level Estimated
01:27AM 41.3384 23.0478 273° West  Level Estimated
01:28AM 41.3435 22.9096 273° West  Level Estimated
01:29AM 41.3484 22.7715 273° West  Level Estimated
01:30AM 41.3532 22.6333 273° West  Level Estimated
01:31AM 41.3578 22.4951 273° West  Level Estimated
01:32AM 41.3622 22.3569 272° West  Level Estimated
01:33AM 41.3664 22.2187 272° West  Level Estimated
01:34AM 41.3705 22.0804 272° West  Level Estimated
01:35AM 41.3744 21.9422 272° West  Level Estimated
01:36AM 41.3782 21.8039 272° West  Level Estimated
01:37AM 41.3818 21.6656 272° West  Level Estimated
01:38AM 41.3852 21.5273 272° West  Level Estimated
01:39AM 41.3885 21.3889 272° West  Level Estimated
01:40AM 41.3916 21.2506 272° West  Level Estimated
01:41AM 41.3945 21.1122 272° West  Level Estimated
01:42AM 41.3973 20.9739 272° West  Level Estimated
01:43AM 41.3999 20.8355 271° West  Level Estimated
01:44AM 41.4023 20.6971 271° West  Level Estimated
01:45AM 41.4046 20.5587 271° West  Level Estimated
01:46AM 41.4067 20.4203 271° West  Level Estimated
01:47AM 41.4086 20.2819 271° West  Level Estimated
01:48AM 41.4104 20.1435 271° West  Level Estimated
01:49AM 41.4120 20.0051 271° West  Level Estimated
01:50AM 41.4134 19.8666 271° West  Level Estimated
01:51AM 41.4147 19.7282 271° West  Level Estimated
01:52AM 41.4147 19.7206 271° West  Level Estimated
01:53AM 41.4147 19.7206 21° North  Level Estimated
01:54AM 41.4147 19.7206 21° North  Level Estimated
01:55AM 41.4147 19.7206 21° North  Level Estimated
01:56AM 41.4147 19.7206 21° North  Level Estimated
01:57AM 41.4147 19.7206 21° North  Level Estimated
01:58AM 41.4147 19.7206 21° North  Level Estimated
01:59AM 41.4147 19.7206 21° North  Level Estimated
02:00AM 41.4147 19.7206 21° North  Level Estimated
02:01AM 41.4147 19.7206 21° North  Level Estimated
02:02AM 41.4147 19.7206 21° North  Level Estimated
02:03AM 41.4147 19.7206 21° North  Level Estimated
02:04AM 41.4147 19.7206 21° North  Level Estimated
02:05AM 41.4147 19.7206 21° North  Level Estimated
02:06AM 41.4147 19.7206 21° North  Level Estimated
02:07AM 41.4147 19.7206 21° North  Level Estimated